Time;durP1;ratioP1;P1;durP2;ratioP2;P2;SDS_P1;SDS_P2;PMS_P1;PMS_P2;Temp;Humidity;BMP_temperature;BMP_pressure;BME280_temperature;BME280_humidity;BME280_pressure;Samples;Min_cycle;Max_cycle;Signal;HPM_P1;HPM_P2
2023/07/26 00:00:04;;;;;;;3.65;2.08;;;12.40;99.90;;;;;;5001341;28;20042;-70
2023/07/26 00:02:30;;;;;;;6.82;2.75;;;12.40;99.90;;;;;;4998242;28;20095;-71
2023/07/26 00:04:55;;;;;;;7.68;2.17;;;12.40;99.90;;;;;;4997993;28;20097;-70
2023/07/26 00:07:21;;;;;;;3.40;1.90;;;12.30;99.90;;;;;;4999487;28;20502;-69
2023/07/26 00:09:46;;;;;;;7.03;2.30;;;12.30;99.90;;;;;;5000701;28;20045;-69
2023/07/26 00:12:12;;;;;;;5.80;2.63;;;12.30;99.90;;;;;;5001435;28;20057;-70
2023/07/26 00:14:38;;;;;;;6.57;2.60;;;12.30;99.90;;;;;;5000930;28;20444;-70
2023/07/26 00:17:04;;;;;;;7.03;2.20;;;12.30;99.90;;;;;;5009104;28;20132;-70
2023/07/26 00:19:30;;;;;;;5.50;2.45;;;12.30;99.90;;;;;;5008340;28;20041;-70
2023/07/26 00:21:55;;;;;;;6.68;2.42;;;12.30;99.90;;;;;;4998557;28;20516;-70
2023/07/26 00:24:21;;;;;;;4.60;2.60;;;12.20;99.90;;;;;;5001384;28;20058;-70
2023/07/26 00:26:47;;;;;;;4.50;2.35;;;12.20;99.90;;;;;;5003457;28;20129;-70
2023/07/26 00:29:12;;;;;;;6.90;2.30;;;12.30;99.90;;;;;;5004881;28;20045;-70
2023/07/26 00:31:38;;;;;;;5.25;2.15;;;12.20;99.90;;;;;;5004166;28;20120;-70
2023/07/26 00:34:04;;;;;;;4.57;2.20;;;12.20;99.90;;;;;;5001240;28;20038;-70
2023/07/26 00:36:29;;;;;;;4.38;2.22;;;12.30;99.90;;;;;;5001336;28;20113;-70
2023/07/26 00:38:55;;;;;;;3.95;2.10;;;12.20;99.90;;;;;;4993416;28;20048;-70
2023/07/26 00:41:21;;;;;;;6.70;2.58;;;12.20;99.90;;;;;;5004240;28;20048;-70
2023/07/26 00:43:47;;;;;;;4.47;2.58;;;12.20;99.90;;;;;;5004303;28;20116;-70
2023/07/26 00:46:13;;;;;;;6.88;2.47;;;12.20;99.90;;;;;;5001208;28;20058;-70
2023/07/26 00:48:38;;;;;;;5.50;2.60;;;12.20;99.90;;;;;;5005184;28;20468;-71
2023/07/26 00:51:05;;;;;;;6.38;2.97;;;12.20;99.90;;;;;;5002253;28;20047;-70
2023/07/26 00:53:32;;;;;;;4.05;2.22;;;12.20;99.90;;;;;;5004159;28;20149;-70
2023/07/26 00:55:58;;;;;;;5.72;2.30;;;12.20;99.90;;;;;;5003770;28;20135;-70
2023/07/26 00:58:24;;;;;;;4.25;2.50;;;12.20;99.90;;;;;;5001203;28;20042;-70
2023/07/26 01:00:50;;;;;;;4.80;2.45;;;12.30;99.90;;;;;;5000956;28;20398;-70
2023/07/26 01:03:17;;;;;;;5.13;2.50;;;12.10;99.90;;;;;;5002169;28;20117;-70
2023/07/26 01:06:37;;;;;;;5.95;2.50;;;12.10;99.90;;;;;;5004360;28;20054;-70
2023/07/26 01:09:07;;;;;;;6.93;2.60;;;12.10;99.90;;;;;;4947549;29;20150;-70
2023/07/26 01:11:48;;;;;;;5.45;2.10;;;12.10;99.90;;;;;;4951115;29;20054;-71
2023/07/26 01:14:29;;;;;;;4.50;2.42;;;12.10;99.90;;;;;;4951505;29;20328;-70
2023/07/26 01:16:55;;;;;;;6.22;2.20;;;12.10;99.90;;;;;;4951151;29;20614;-70
2023/07/26 01:19:21;;;;;;;5.93;2.58;;;12.10;99.90;;;;;;4951293;29;20055;-70
2023/07/26 01:21:47;;;;;;;7.80;2.45;;;12.00;99.90;;;;;;4951056;29;20122;-70
2023/07/26 01:24:13;;;;;;;5.95;2.63;;;12.00;99.90;;;;;;4951199;29;20078;-70
2023/07/26 01:26:38;;;;;;;6.85;2.40;;;12.00;99.90;;;;;;4950766;29;20075;-70
2023/07/26 01:29:04;;;;;;;7.05;2.53;;;11.90;99.90;;;;;;4951081;29;20047;-70
2023/07/26 01:31:30;;;;;;;5.47;3.08;;;11.90;99.90;;;;;;4951021;29;20043;-70
2023/07/26 01:33:58;;;;;;;7.68;3.00;;;11.90;99.90;;;;;;4950343;28;20087;-70
2023/07/26 01:36:24;;;;;;;8.93;3.17;;;11.90;99.90;;;;;;4951137;29;20414;-70
2023/07/26 01:38:52;;;;;;;5.53;2.88;;;11.90;99.90;;;;;;4946272;28;20093;-70
2023/07/26 01:41:18;;;;;;;5.40;2.67;;;11.90;99.90;;;;;;5000096;28;20038;-70
2023/07/26 01:43:44;;;;;;;6.05;2.72;;;11.90;99.90;;;;;;5000305;28;20086;-70
2023/07/26 01:46:11;;;;;;;5.00;3.28;;;11.80;99.90;;;;;;5003013;28;20080;-70
2023/07/26 01:48:37;;;;;;;4.78;2.72;;;11.80;99.90;;;;;;5011014;28;20108;-70
2023/07/26 01:51:03;;;;;;;8.48;2.80;;;11.80;99.90;;;;;;5002016;28;20046;-70
2023/07/26 01:53:29;;;;;;;6.55;3.13;;;11.80;99.90;;;;;;5000178;28;20440;-71
2023/07/26 01:55:55;;;;;;;3.65;2.40;;;11.70;99.90;;;;;;4999619;28;20042;-70
2023/07/26 01:58:20;;;;;;;3.67;2.60;;;11.70;99.90;;;;;;5002182;28;20046;-70
2023/07/26 02:00:46;;;;;;;4.47;2.25;;;11.60;99.90;;;;;;5002731;28;20083;-70
2023/07/26 02:03:12;;;;;;;4.95;2.70;;;11.70;99.90;;;;;;5010415;28;20176;-70
2023/07/26 02:05:44;;;;;;;4.50;2.38;;;11.70;99.90;;;;;;5003372;28;20517;-70
2023/07/26 02:08:10;;;;;;;6.55;2.70;;;11.50;99.90;;;;;;5003139;28;20042;-70
2023/07/26 02:10:36;;;;;;;4.40;2.50;;;11.50;99.90;;;;;;5002651;28;20060;-69
2023/07/26 02:13:02;;;;;;;5.32;3.03;;;11.50;99.90;;;;;;4992777;28;20489;-70
2023/07/26 02:15:27;;;;;;;4.13;2.28;;;11.40;99.90;;;;;;5001709;28;20126;-69
2023/07/26 02:17:53;;;;;;;5.10;2.10;;;11.40;99.90;;;;;;5010181;28;20049;-70
2023/07/26 02:20:19;;;;;;;4.78;2.60;;;11.40;99.90;;;;;;5010811;28;20045;-70
2023/07/26 02:22:45;;;;;;;7.25;2.60;;;11.40;99.90;;;;;;4990363;28;20049;-70
2023/07/26 02:25:11;;;;;;;5.32;2.65;;;11.40;99.90;;;;;;5003623;28;20122;-70
2023/07/26 02:27:37;;;;;;;5.82;3.38;;;11.50;99.90;;;;;;5010347;28;20508;-70
2023/07/26 02:30:03;;;;;;;4.90;2.90;;;11.50;99.90;;;;;;5002500;28;20603;-70
2023/07/26 02:32:29;;;;;;;5.35;2.50;;;11.30;99.90;;;;;;5002598;28;20048;-70
2023/07/26 02:34:55;;;;;;;7.47;2.55;;;11.30;99.90;;;;;;5006411;28;20054;-70
2023/07/26 02:37:21;;;;;;;5.10;2.67;;;11.30;99.90;;;;;;4992623;28;20063;-70
2023/07/26 02:39:47;;;;;;;4.65;2.58;;;11.40;99.90;;;;;;5002199;28;20054;-70
2023/07/26 02:42:13;;;;;;;6.93;2.50;;;11.20;99.90;;;;;;5006862;28;20046;-70
2023/07/26 02:44:38;;;;;;;9.20;2.83;;;11.20;99.90;;;;;;4990047;28;20060;-70
2023/07/26 02:47:04;;;;;;;5.03;2.55;;;11.20;99.90;;;;;;5000237;28;20065;-70
2023/07/26 02:49:31;;;;;;;7.13;2.30;;;11.10;99.90;;;;;;5004738;28;20459;-71
2023/07/26 02:51:57;;;;;;;4.82;2.30;;;11.10;99.90;;;;;;4999679;28;20181;-70
2023/07/26 02:54:23;;;;;;;5.15;2.30;;;11.00;99.90;;;;;;5002403;28;20121;-70
2023/07/26 02:56:48;;;;;;;9.27;3.22;;;11.10;99.90;;;;;;5005665;28;20493;-70
2023/07/26 02:59:14;;;;;;;5.15;3.30;;;11.00;99.90;;;;;;5002142;28;20050;-71
2023/07/26 03:01:39;;;;;;;5.07;2.90;;;11.10;99.90;;;;;;4992573;28;20083;-70
2023/07/26 03:04:05;;;;;;;5.88;2.90;;;11.00;99.90;;;;;;4992509;28;20081;-70
2023/07/26 03:06:31;;;;;;;6.20;2.90;;;10.90;99.90;;;;;;5010297;28;20041;-70
2023/07/26 03:08:56;;;;;;;5.88;3.03;;;10.90;99.90;;;;;;5001724;28;20397;-70
2023/07/26 03:11:22;;;;;;;4.68;3.00;;;10.90;99.90;;;;;;5003091;28;20042;-70
2023/07/26 03:13:48;;;;;;;7.05;3.13;;;10.80;99.90;;;;;;5005608;28;20042;-70
2023/07/26 03:16:17;;;;;;;5.28;3.08;;;10.80;99.90;;;;;;4999095;28;20046;-69
2023/07/26 03:18:43;;;;;;;10.77;3.08;;;10.90;99.90;;;;;;5007150;28;20482;-70
2023/07/26 03:21:08;;;;;;;5.07;2.70;;;10.80;99.90;;;;;;4989132;28;20065;-70
2023/07/26 03:23:34;;;;;;;5.65;2.85;;;11.00;99.90;;;;;;5000394;28;20042;-71
2023/07/26 03:26:01;;;;;;;7.22;3.10;;;10.60;99.90;;;;;;4992505;28;20556;-70
2023/07/26 03:28:27;;;;;;;8.05;2.85;;;10.80;99.90;;;;;;5009813;28;20045;-70
2023/07/26 03:30:52;;;;;;;7.70;3.05;;;10.80;99.90;;;;;;5001076;28;20054;-69
2023/07/26 03:33:18;;;;;;;10.55;3.72;;;10.90;99.90;;;;;;5010042;28;20048;-70
2023/07/26 03:35:44;;;;;;;6.55;3.13;;;10.90;99.90;;;;;;5001701;28;20042;-70
2023/07/26 03:38:09;;;;;;;5.63;3.00;;;10.90;99.90;;;;;;5010051;28;20048;-70
2023/07/26 03:40:35;;;;;;;7.95;3.50;;;11.00;99.90;;;;;;5001342;28;20041;-69
2023/07/26 03:43:01;;;;;;;5.35;3.03;;;11.00;99.90;;;;;;5001206;28;20532;-70
2023/07/26 03:45:27;;;;;;;8.68;3.88;;;11.10;99.90;;;;;;5001837;28;20076;-70
2023/07/26 03:47:53;;;;;;;7.15;3.30;;;11.10;99.90;;;;;;5001190;28;20054;-70
2023/07/26 03:50:20;;;;;;;8.18;3.55;;;11.10;99.90;;;;;;5001472;28;20058;-70
2023/07/26 03:52:46;;;;;;;9.57;3.72;;;11.10;99.90;;;;;;5001732;28;20041;-70
2023/07/26 03:55:11;;;;;;;5.90;3.30;;;11.20;99.90;;;;;;4999746;28;20115;-70
2023/07/26 03:57:37;;;;;;;8.35;3.72;;;11.20;99.90;;;;;;5000317;28;20482;-70
2023/07/26 04:00:04;;;;;;;9.18;3.17;;;11.20;99.90;;;;;;4992737;28;20561;-70
2023/07/26 04:02:31;;;;;;;9.98;3.42;;;11.30;99.90;;;;;;5005286;28;20088;-70
2023/07/26 04:04:57;;;;;;;9.65;3.08;;;11.30;99.90;;;;;;4996116;28;20045;-70
2023/07/26 04:07:22;;;;;;;7.63;2.78;;;11.30;99.90;;;;;;5003140;28;20603;-70
2023/07/26 04:09:48;;;;;;;10.38;3.25;;;11.30;99.90;;;;;;4992367;28;20494;-70
2023/07/26 04:12:14;;;;;;;4.28;2.80;;;11.40;99.90;;;;;;5002194;28;20082;-70
2023/07/26 04:14:40;;;;;;;5.22;3.05;;;11.40;99.90;;;;;;5004838;28;20037;-70
2023/07/26 04:17:06;;;;;;;6.18;2.97;;;11.40;99.90;;;;;;4995525;28;20049;-70
2023/07/26 04:19:31;;;;;;;8.48;4.00;;;11.50;99.90;;;;;;5011397;28;20416;-70
2023/07/26 04:21:57;;;;;;;5.40;2.83;;;11.50;99.90;;;;;;5001746;28;20054;-70
2023/07/26 04:24:23;;;;;;;8.30;2.90;;;11.50;99.90;;;;;;5009557;28;20046;-70
2023/07/26 04:26:49;;;;;;;10.20;2.72;;;11.60;99.90;;;;;;5004913;28;20057;-70
2023/07/26 04:29:15;;;;;;;5.35;2.65;;;11.60;99.90;;;;;;5004435;28;20042;-70
2023/07/26 04:31:40;;;;;;;5.15;2.30;;;11.60;99.90;;;;;;5003544;28;20132;-70
2023/07/26 04:34:06;;;;;;;6.15;2.38;;;11.60;99.90;;;;;;5005636;28;20044;-70
2023/07/26 04:36:32;;;;;;;6.80;2.50;;;11.70;99.90;;;;;;5005395;28;20125;-70
2023/07/26 04:38:57;;;;;;;5.22;2.28;;;11.70;99.90;;;;;;5003755;28;20042;-70
2023/07/26 04:41:23;;;;;;;7.47;2.38;;;11.80;99.90;;;;;;5006275;28;20041;-70
2023/07/26 04:43:49;;;;;;;6.00;2.38;;;11.80;99.90;;;;;;5012227;28;20049;-70
2023/07/26 04:46:16;;;;;;;7.95;2.50;;;11.90;99.90;;;;;;5011542;28;20038;-70
2023/07/26 04:48:42;;;;;;;4.43;2.17;;;11.90;99.90;;;;;;5005416;28;20047;-70
2023/07/26 04:51:08;;;;;;;3.42;2.10;;;12.00;99.90;;;;;;5003119;28;20050;-70
2023/07/26 04:53:33;;;;;;;5.15;2.00;;;12.00;99.90;;;;;;4994567;28;20049;-70
2023/07/26 04:55:59;;;;;;;5.57;2.33;;;12.10;99.90;;;;;;5012041;28;20370;-70
2023/07/26 04:58:25;;;;;;;5.50;2.55;;;12.10;99.90;;;;;;5001412;28;20053;-70
2023/07/26 05:00:50;;;;;;;9.77;2.55;;;12.10;99.90;;;;;;5007331;28;20496;-70
2023/07/26 05:03:16;;;;;;;3.92;2.33;;;12.20;99.90;;;;;;5010595;28;20511;-70
2023/07/26 05:05:49;;;;;;;7.57;2.33;;;12.30;99.90;;;;;;5000989;28;20042;-70
2023/07/26 05:08:15;;;;;;;4.15;2.20;;;12.50;99.90;;;;;;4993385;28;20046;-70
2023/07/26 05:10:40;;;;;;;7.30;2.38;;;12.40;99.90;;;;;;5004146;28;20037;-70
2023/07/26 05:13:06;;;;;;;3.95;2.15;;;12.40;99.90;;;;;;5004089;28;20088;-69
2023/07/26 05:15:31;;;;;;;4.65;2.30;;;12.60;99.90;;;;;;5003148;28;20046;-69
2023/07/26 05:17:57;;;;;;;3.40;1.77;;;12.50;99.90;;;;;;5011745;28;20881;-69
2023/07/26 05:20:23;;;;;;;6.00;2.10;;;12.60;99.90;;;;;;5003671;28;20084;-70
2023/07/26 05:22:49;;;;;;;4.93;2.28;;;12.60;99.90;;;;;;5000417;28;20050;-69
2023/07/26 05:25:14;;;;;;;5.20;2.17;;;12.60;99.90;;;;;;5001347;28;20745;-70
2023/07/26 05:27:40;;;;;;;9.05;2.50;;;12.60;99.90;;;;;;5002056;28;20137;-71
2023/07/26 05:30:06;;;;;;;4.72;1.90;;;12.60;99.90;;;;;;5003759;28;20053;-70
2023/07/26 05:32:32;;;;;;;4.53;1.50;;;12.60;99.90;;;;;;5003338;28;20482;-70
2023/07/26 05:34:58;;;;;;;3.90;1.60;;;12.60;99.90;;;;;;5000515;28;20504;-70
2023/07/26 05:37:24;;;;;;;4.47;1.48;;;12.70;99.90;;;;;;5004445;28;20038;-69
2023/07/26 05:39:51;;;;;;;3.92;1.73;;;12.70;99.90;;;;;;5011054;28;20046;-68
2023/07/26 05:42:17;;;;;;;5.25;1.73;;;12.70;99.90;;;;;;5006348;28;20034;-68
2023/07/26 05:44:42;;;;;;;4.85;1.73;;;12.70;99.90;;;;;;5003422;28;20400;-67
2023/07/26 05:47:13;;;;;;;5.78;2.05;;;12.70;99.90;;;;;;5000612;28;20882;-67
2023/07/26 05:49:42;;;;;;;5.88;2.08;;;12.70;99.90;;;;;;4999855;28;20493;-70
2023/07/26 05:52:08;;;;;;;4.10;1.70;;;12.70;99.90;;;;;;5007242;28;20042;-70
2023/07/26 05:54:34;;;;;;;5.22;2.08;;;12.70;99.90;;;;;;5011029;28;20042;-69
2023/07/26 05:57:00;;;;;;;4.05;1.92;;;12.80;99.90;;;;;;5003442;28;20105;-68
2023/07/26 05:59:26;;;;;;;4.82;2.05;;;12.80;99.90;;;;;;4990374;28;20042;-69
2023/07/26 06:01:52;;;;;;;4.88;1.88;;;12.80;99.90;;;;;;4999632;28;20082;-71
2023/07/26 06:04:18;;;;;;;5.63;1.67;;;12.80;99.90;;;;;;5001270;28;20414;-70
2023/07/26 06:06:44;;;;;;;5.30;2.20;;;12.90;99.90;;;;;;5002805;28;20445;-70
2023/07/26 06:09:09;;;;;;;5.40;1.67;;;12.90;99.90;;;;;;5002581;28;20104;-70
2023/07/26 06:11:35;;;;;;;6.40;2.47;;;12.90;99.90;;;;;;5002437;28;20056;-68
2023/07/26 06:14:01;;;;;;;4.70;2.20;;;12.90;99.90;;;;;;5009547;28;20386;-69
2023/07/26 06:16:27;;;;;;;4.72;2.00;;;13.00;99.90;;;;;;5003775;28;20087;-69
2023/07/26 06:18:52;;;;;;;4.03;1.95;;;13.00;99.90;;;;;;4989878;28;20117;-69
2023/07/26 06:21:19;;;;;;;3.45;1.70;;;13.00;99.90;;;;;;4998822;28;20129;-69
2023/07/26 06:23:45;;;;;;;4.28;1.83;;;13.00;99.90;;;;;;5001887;28;20046;-69
2023/07/26 06:26:12;;;;;;;5.28;2.00;;;13.00;99.90;;;;;;5004469;28;20085;-69
2023/07/26 06:28:38;;;;;;;7.38;2.22;;;13.30;99.90;;;;;;5000419;28;20061;-69
2023/07/26 06:31:03;;;;;;;4.00;1.80;;;13.10;99.90;;;;;;5002468;28;20046;-69
2023/07/26 06:33:29;;;;;;;5.07;2.05;;;13.10;99.90;;;;;;5009880;28;20046;-69
2023/07/26 06:35:55;;;;;;;7.07;1.77;;;13.10;99.90;;;;;;5008013;28;20087;-70
2023/07/26 06:38:22;;;;;;;6.53;2.15;;;13.20;99.90;;;;;;4991581;28;20046;-70
2023/07/26 06:40:48;;;;;;;3.35;1.65;;;13.20;99.90;;;;;;5009207;28;20046;-70
2023/07/26 06:43:13;;;;;;;4.88;2.20;;;13.40;99.90;;;;;;4998950;28;20858;-70
2023/07/26 06:45:45;;;;;;;4.45;2.15;;;13.40;99.90;;;;;;4999299;28;20125;-70
2023/07/26 06:48:10;;;;;;;5.10;2.05;;;13.40;99.90;;;;;;5009587;28;20092;-69
2023/07/26 06:50:40;;;;;;;5.80;1.83;;;13.30;99.90;;;;;;5010099;28;20085;-70
2023/07/26 06:53:05;;;;;;;3.55;1.65;;;13.30;99.90;;;;;;4990645;28;20045;-70
2023/07/26 06:55:37;;;;;;;3.38;1.70;;;13.30;99.90;;;;;;5003768;28;20038;-70
2023/07/26 06:58:03;;;;;;;4.78;1.98;;;13.30;99.90;;;;;;5001832;28;20046;-69
2023/07/26 07:00:29;;;;;;;5.32;2.10;;;13.30;99.90;;;;;;5003258;28;20042;-69
2023/07/26 07:02:58;;;;;;;5.93;1.90;;;13.20;99.90;;;;;;5001400;28;20049;-70
2023/07/26 07:05:26;;;;;;;3.25;1.60;;;13.20;99.90;;;;;;5007520;28;20050;-71
2023/07/26 07:07:51;;;;;;;5.05;1.80;;;13.20;99.90;;;;;;4999906;28;20034;-69
2023/07/26 07:10:17;;;;;;;3.25;1.73;;;13.20;99.90;;;;;;5008784;28;20566;-70
2023/07/26 07:12:43;;;;;;;6.32;1.90;;;13.20;99.90;;;;;;4998829;28;20100;-71
2023/07/26 07:15:09;;;;;;;4.20;1.63;;;13.30;99.90;;;;;;4992098;28;20042;-70
2023/07/26 07:17:35;;;;;;;6.35;2.08;;;13.30;99.90;;;;;;5000207;28;20053;-68
2023/07/26 07:20:00;;;;;;;3.45;1.63;;;13.40;99.90;;;;;;4999053;28;20047;-69
2023/07/26 07:22:27;;;;;;;3.00;1.45;;;13.50;99.90;;;;;;4999071;28;20038;-69
2023/07/26 07:24:53;;;;;;;4.40;1.50;;;13.40;99.90;;;;;;4992349;28;20144;-70
2023/07/26 07:27:21;;;;;;;2.92;1.50;;;13.40;99.90;;;;;;5001804;28;20127;-70
2023/07/26 07:29:47;;;;;;;3.38;1.33;;;13.50;99.90;;;;;;4999106;28;20127;-70
2023/07/26 07:32:13;;;;;;;4.45;1.50;;;13.50;99.90;;;;;;5000062;28;20082;-70
2023/07/26 07:34:39;;;;;;;3.17;1.30;;;13.60;99.90;;;;;;5010600;28;20069;-70
2023/07/26 07:37:05;;;;;;;2.97;1.20;;;13.80;99.90;;;;;;4996617;28;20045;-68
2023/07/26 07:39:31;;;;;;;4.75;1.23;;;13.90;99.90;;;;;;5006017;28;20038;-70
2023/07/26 07:41:57;;;;;;;3.20;1.60;;;14.00;99.90;;;;;;5005855;28;20121;-71
2023/07/26 07:44:23;;;;;;;3.45;1.70;;;14.10;99.90;;;;;;4996591;28;20121;-70
2023/07/26 07:46:49;;;;;;;4.80;2.17;;;14.30;99.90;;;;;;5005526;28;20045;-70
2023/07/26 07:49:14;;;;;;;5.13;2.35;;;14.60;99.90;;;;;;5004365;28;20038;-71
2023/07/26 07:51:40;;;;;;;6.90;2.42;;;14.50;99.90;;;;;;5004788;28;20413;-69
2023/07/26 07:54:06;;;;;;;6.38;2.22;;;14.60;99.90;;;;;;5012330;28;20128;-70
2023/07/26 07:56:31;;;;;;;4.65;2.25;;;14.70;99.90;;;;;;5002904;28;20040;-70
2023/07/26 07:58:57;;;;;;;3.95;2.08;;;14.90;99.90;;;;;;5010746;28;20830;-69
2023/07/26 08:01:23;;;;;;;3.97;2.40;;;15.10;99.90;;;;;;5005970;28;20048;-70
2023/07/26 08:03:49;;;;;;;5.40;2.35;;;15.20;99.90;;;;;;5005634;28;20050;-70
2023/07/26 08:06:15;;;;;;;3.28;1.83;;;15.50;99.90;;;;;;4995003;28;20046;-70
2023/07/26 08:08:40;;;;;;;4.13;2.00;;;15.50;99.90;;;;;;5002699;28;20512;-70
2023/07/26 08:11:06;;;;;;;4.13;1.63;;;15.60;99.90;;;;;;5002311;28;20054;-70
2023/07/26 08:13:33;;;;;;;4.80;1.80;;;15.50;99.90;;;;;;5010712;28;20104;-70
2023/07/26 08:15:59;;;;;;;4.30;2.15;;;15.80;99.90;;;;;;5002356;28;20042;-70
2023/07/26 08:18:25;;;;;;;4.15;1.40;;;16.20;99.90;;;;;;5003302;28;20685;-71
2023/07/26 08:20:51;;;;;;;3.00;1.70;;;16.00;99.90;;;;;;5004864;28;20665;-71
2023/07/26 08:23:17;;;;;;;4.82;1.40;;;16.00;99.90;;;;;;5014091;28;20053;-70
2023/07/26 08:25:43;;;;;;;2.65;1.50;;;16.00;99.90;;;;;;5004498;28;20500;-68
2023/07/26 08:28:08;;;;;;;3.63;1.48;;;16.00;99.90;;;;;;4995277;28;20065;-70
2023/07/26 08:30:34;;;;;;;3.15;1.67;;;15.90;99.90;;;;;;5004530;28;20054;-72
2023/07/26 08:33:01;;;;;;;3.42;2.10;;;16.00;99.90;;;;;;5001863;28;20140;-71
2023/07/26 08:35:27;;;;;;;3.40;2.28;;;16.10;99.90;;;;;;5001686;28;20193;-71
2023/07/26 08:37:52;;;;;;;4.78;2.35;;;16.20;99.90;;;;;;4994699;28;20050;-70
2023/07/26 08:40:19;;;;;;;6.05;2.78;;;16.40;99.90;;;;;;5004804;28;20033;-71
2023/07/26 08:42:45;;;;;;;4.45;2.78;;;16.70;99.90;;;;;;5007092;28;20051;-72
2023/07/26 08:45:12;;;;;;;5.78;2.85;;;16.80;99.90;;;;;;5003841;28;20103;-70
2023/07/26 08:47:38;;;;;;;4.22;2.45;;;16.90;99.90;;;;;;5004558;28;20493;-71
2023/07/26 08:50:04;;;;;;;6.05;2.80;;;17.00;99.90;;;;;;5011312;28;20053;-70
2023/07/26 08:52:31;;;;;;;4.43;2.40;;;17.20;99.90;;;;;;5007896;28;20042;-70
2023/07/26 08:54:57;;;;;;;6.00;2.70;;;17.20;99.90;;;;;;5009561;28;20041;-71
2023/07/26 08:57:24;;;;;;;7.45;2.88;;;17.10;99.90;;;;;;5009622;28;20050;-70
2023/07/26 08:59:50;;;;;;;4.75;2.90;;;16.90;99.90;;;;;;5001632;28;20057;-70
2023/07/26 09:02:17;;;;;;;4.75;2.42;;;16.80;99.90;;;;;;5011474;28;20038;-71
2023/07/26 09:04:45;;;;;;;4.55;2.50;;;16.80;99.90;;;;;;5004371;28;20125;-70
2023/07/26 09:07:12;;;;;;;4.38;2.65;;;17.10;99.90;;;;;;4994443;28;20088;-70
2023/07/26 09:09:38;;;;;;;6.47;2.83;;;17.30;99.90;;;;;;5001287;28;20145;-71
2023/07/26 09:12:04;;;;;;;5.50;2.70;;;17.40;99.90;;;;;;5006524;28;20120;-70
2023/07/26 09:14:32;;;;;;;5.78;2.35;;;17.70;99.90;;;;;;5010235;28;20069;-70
2023/07/26 09:17:01;;;;;;;5.45;2.42;;;17.70;99.90;;;;;;5001475;28;20093;-72
2023/07/26 09:19:35;;;;;;;5.07;2.55;;;18.00;99.90;;;;;;5002570;28;20046;-71
2023/07/26 09:22:03;;;;;;;5.97;2.72;;;18.30;99.90;;;;;;5004118;28;20045;-71
2023/07/26 09:24:34;;;;;;;5.65;2.47;;;18.50;99.90;;;;;;5003198;28;20049;-71
2023/07/26 09:27:11;;;;;;;7.10;2.95;;;18.40;99.90;;;;;;5001724;28;20448;-71
2023/07/26 09:29:40;;;;;;;5.18;2.80;;;18.60;99.90;;;;;;5002150;28;20112;-70
2023/07/26 09:32:07;;;;;;;5.97;3.03;;;18.60;99.90;;;;;;5004137;28;20046;-71
2023/07/26 09:34:33;;;;;;;4.25;2.75;;;18.70;99.90;;;;;;4994514;28;20046;-71
2023/07/26 09:36:59;;;;;;;3.95;2.13;;;19.00;99.90;;;;;;5000531;28;20042;-71
2023/07/26 09:39:28;;;;;;;5.00;1.70;;;18.60;99.90;;;;;;5005932;28;20048;-73
2023/07/26 09:42:08;;;;;;;5.90;1.90;;;18.20;99.90;;;;;;4993417;28;20132;-71
2023/07/26 09:44:34;;;;;;;2.97;1.45;;;17.80;99.90;;;;;;5004391;28;20034;-72
2023/07/26 09:47:00;;;;;;;2.85;1.60;;;17.50;99.90;;;;;;5003621;28;20058;-71
2023/07/26 09:49:27;;;;;;;8.93;1.90;;;17.40;99.90;;;;;;5003828;28;20461;-71
2023/07/26 09:51:55;;;;;;;4.95;1.92;;;17.20;99.90;;;;;;5002863;28;20493;-71
2023/07/26 09:54:31;;;;;;;4.70;1.73;;;17.20;99.90;;;;;;4991285;28;20056;-71
2023/07/26 09:56:57;;;;;;;2.72;1.50;;;17.50;99.90;;;;;;5001130;28;20396;-70
2023/07/26 09:59:28;;;;;;;4.30;1.92;;;17.80;99.90;;;;;;5004063;28;20084;-71
2023/07/26 10:02:02;;;;;;;3.27;1.67;;;17.90;99.90;;;;;;5003632;28;20080;-71
2023/07/26 10:04:37;;;;;;;10.70;3.03;;;18.00;99.90;;;;;;5000422;28;20046;-71
2023/07/26 10:07:06;;;;;;;3.97;1.90;;;18.20;99.90;;;;;;5000086;28;20053;-71
2023/07/26 10:09:33;;;;;;;5.72;1.52;;;18.40;99.90;;;;;;5003718;28;20474;-70
2023/07/26 10:12:02;;;;;;;4.97;2.03;;;18.50;99.90;;;;;;5009420;28;20056;-71
2023/07/26 10:14:30;;;;;;;3.33;1.58;;;18.40;99.90;;;;;;5004598;28;20038;-70
2023/07/26 10:16:58;;;;;;;4.18;1.73;;;18.40;99.90;;;;;;5005790;28;20050;-71
2023/07/26 10:19:25;;;;;;;4.78;1.48;;;18.70;99.90;;;;;;5001089;28;20452;-71
2023/07/26 10:21:51;;;;;;;2.58;1.13;;;18.80;99.90;;;;;;5003377;28;20044;-71
2023/07/26 10:24:21;;;;;;;3.65;1.30;;;18.80;99.90;;;;;;5002940;28;20268;-71
2023/07/26 10:26:49;;;;;;;2.55;1.20;;;18.90;99.90;;;;;;5011670;28;20045;-71
2023/07/26 10:29:16;;;;;;;3.03;1.25;;;19.10;99.90;;;;;;5003248;28;20081;-70
2023/07/26 10:31:42;;;;;;;2.75;1.35;;;19.10;99.90;;;;;;5000921;28;20041;-70
2023/07/26 10:34:09;;;;;;;3.38;1.50;;;19.20;99.90;;;;;;4999814;28;20489;-71
2023/07/26 10:36:36;;;;;;;3.42;1.50;;;19.10;99.90;;;;;;4999708;28;20092;-71
2023/07/26 10:39:11;;;;;;;2.28;1.40;;;19.00;99.90;;;;;;5002885;28;20058;-71
2023/07/26 10:41:46;;;;;;;3.25;1.40;;;19.20;99.90;;;;;;5002578;28;20386;-70
2023/07/26 10:44:12;;;;;;;3.33;1.80;;;19.40;99.90;;;;;;5009695;28;20077;-71
2023/07/26 10:47:03;;;;;;;3.50;1.77;;;19.60;99.90;;;;;;5002590;28;20073;-70
2023/07/26 10:49:33;;;;;;;4.45;2.20;;;19.50;99.90;;;;;;5005076;28;20104;-72
2023/07/26 10:52:02;;;;;;;3.58;1.70;;;19.50;99.90;;;;;;5000747;28;20058;-70
2023/07/26 10:54:44;;;;;;;3.47;1.63;;;19.40;99.90;;;;;;4999573;28;20511;-71
2023/07/26 10:57:13;;;;;;;3.42;1.70;;;19.40;99.90;;;;;;5001245;28;20061;-70
2023/07/26 11:00:04;;;;;;;3.80;1.38;;;19.60;99.90;;;;;;4993467;28;20145;-70
2023/07/26 11:02:36;;;;;;;2.15;1.00;;;19.90;99.90;;;;;;5003267;28;20060;-72
2023/07/26 11:05:05;;;;;;;3.25;1.73;;;19.70;99.90;;;;;;5003005;28;20517;-71
2023/07/26 11:07:50;;;;;;;4.65;1.50;;;19.90;99.90;;;;;;5005545;28;20041;-70
2023/07/26 11:10:17;;;;;;;4.15;1.25;;;20.10;99.90;;;;;;4999656;28;20564;-70
2023/07/26 11:12:43;;;;;;;5.18;1.38;;;19.80;99.90;;;;;;5002607;28;20037;-70
2023/07/26 11:15:09;;;;;;;3.92;1.17;;;19.70;99.90;;;;;;5001739;28;20050;-70
2023/07/26 11:17:41;;;;;;;2.10;0.80;;;19.40;99.90;;;;;;4999106;28;20101;-71
2023/07/26 11:20:07;;;;;;;1.88;0.70;;;19.30;99.90;;;;;;5005120;28;20041;-70
2023/07/26 11:22:33;;;;;;;2.25;0.88;;;19.10;99.90;;;;;;5001590;28;20220;-70
2023/07/26 11:25:05;;;;;;;2.22;0.80;;;18.70;99.90;;;;;;5001716;28;20133;-71
2023/07/26 11:27:33;;;;;;;1.70;0.80;;;18.40;99.90;;;;;;5000852;28;20477;-71
2023/07/26 11:30:02;;;;;;;3.00;1.00;;;18.30;99.90;;;;;;4998539;28;20057;-71
2023/07/26 11:32:28;;;;;;;2.67;0.90;;;18.30;99.90;;;;;;4998791;28;20053;-71
2023/07/26 11:34:57;;;;;;;2.25;0.82;;;18.20;99.90;;;;;;5010165;28;20061;-71
2023/07/26 11:37:24;;;;;;;4.28;1.13;;;18.10;99.90;;;;;;5001995;28;20061;-71
2023/07/26 11:40:06;;;;;;;3.97;1.25;;;17.90;99.90;;;;;;4999609;28;20038;-71
2023/07/26 11:42:35;;;;;;;2.63;1.02;;;17.80;99.90;;;;;;5002560;28;20041;-71
2023/07/26 11:45:03;;;;;;;2.53;0.93;;;17.60;99.90;;;;;;5007341;28;20184;-71
2023/07/26 11:47:34;;;;;;;2.30;1.00;;;17.50;99.90;;;;;;4998444;28;20054;-71
2023/07/26 11:50:02;;;;;;;2.70;0.90;;;17.40;99.90;;;;;;5006444;28;20404;-71
2023/07/26 11:52:28;;;;;;;2.53;1.20;;;17.40;99.90;;;;;;5004700;28;20454;-70
2023/07/26 11:55:00;;;;;;;3.63;1.23;;;17.30;99.90;;;;;;4998944;28;20505;-70
2023/07/26 11:57:27;;;;;;;4.50;1.42;;;17.40;99.90;;;;;;5001405;28;20050;-70
2023/07/26 12:00:01;;;;;;;4.25;1.33;;;17.50;99.90;;;;;;5001167;28;20056;-70
2023/07/26 12:02:27;;;;;;;3.10;1.20;;;17.30;99.90;;;;;;4992505;28;20085;-71
2023/07/26 12:05:25;;;;;;;5.60;1.40;;;17.60;99.90;;;;;;5002783;28;20034;-71
2023/07/26 12:07:56;;;;;;;4.60;2.00;;;17.90;99.90;;;;;;5004725;28;20132;-70
2023/07/26 12:10:37;;;;;;;5.93;1.77;;;18.20;99.90;;;;;;4998888;28;20481;-70
2023/07/26 12:13:08;;;;;;;4.82;1.40;;;18.40;99.90;;;;;;4998680;28;20046;-71
2023/07/26 12:15:54;;;;;;;3.47;1.13;;;18.60;99.90;;;;;;5001557;28;20041;-71
2023/07/26 12:18:24;;;;;;;2.40;1.08;;;18.80;99.90;;;;;;4992425;28;20386;-71
2023/07/26 12:21:06;;;;;;;3.63;1.20;;;19.10;99.90;;;;;;4995603;28;20807;-70
2023/07/26 12:23:51;;;;;;;2.90;1.38;;;19.40;99.90;;;;;;5003752;28;20045;-71
2023/07/26 12:26:22;;;;;;;3.22;1.38;;;19.50;99.90;;;;;;5001827;28;20054;-70
2023/07/26 12:28:50;;;;;;;3.45;1.55;;;19.60;99.90;;;;;;5004630;28;20053;-70
2023/07/26 12:31:23;;;;;;;3.90;1.73;;;19.90;99.90;;;;;;4994676;28;20045;-71
2023/07/26 12:34:15;;;;;;;5.13;2.00;;;19.90;99.90;;;;;;5002252;28;20050;-70
2023/07/26 12:36:41;;;;;;;4.75;1.27;;;20.00;99.90;;;;;;5000493;28;20061;-73
2023/07/26 12:39:12;;;;;;;6.97;1.77;;;20.20;99.90;;;;;;5004546;28;20046;-74
2023/07/26 12:41:40;;;;;;;4.45;1.23;;;20.10;99.90;;;;;;5004194;28;20135;-76
2023/07/26 12:44:06;;;;;;;3.85;1.35;;;19.80;99.90;;;;;;4991541;28;20054;-73
2023/07/26 12:46:35;;;;;;;8.30;1.35;;;19.70;99.90;;;;;;5001161;28;20494;-75